sensor_id;sensor_type;location;lat;lon;timestamp;temperature;humidity
78536;SHT31;67829;51.968;5.684;2023-07-31T00:00:12;19.2;70.8
78536;SHT31;67829;51.968;5.684;2023-07-31T00:02:41;19.3;70.9
78536;SHT31;67829;51.968;5.684;2023-07-31T00:05:10;19.3;70.7
78536;SHT31;67829;51.968;5.684;2023-07-31T00:07:38;19.3;70.9
78536;SHT31;67829;51.968;5.684;2023-07-31T00:10:07;19.3;70.8
78536;SHT31;67829;51.968;5.684;2023-07-31T00:12:38;19.3;70.7
78536;SHT31;67829;51.968;5.684;2023-07-31T00:15:07;19.3;70.7
78536;SHT31;67829;51.968;5.684;2023-07-31T00:17:37;19.3;70.9
78536;SHT31;67829;51.968;5.684;2023-07-31T00:20:06;19.3;71.1
78536;SHT31;67829;51.968;5.684;2023-07-31T00:22:35;19.3;71.2
78536;SHT31;67829;51.968;5.684;2023-07-31T00:25:05;19.3;71.1
78536;SHT31;67829;51.968;5.684;2023-07-31T00:27:33;19.3;71.4
78536;SHT31;67829;51.968;5.684;2023-07-31T00:30:02;19.3;71.9
78536;SHT31;67829;51.968;5.684;2023-07-31T00:32:31;19.3;72.3
78536;SHT31;67829;51.968;5.684;2023-07-31T00:34:59;19.3;72.5
78536;SHT31;67829;51.968;5.684;2023-07-31T00:37:28;19.3;73.0
78536;SHT31;67829;51.968;5.684;2023-07-31T00:39:57;19.3;73.3
78536;SHT31;67829;51.968;5.684;2023-07-31T00:42:26;19.3;73.7
78536;SHT31;67829;51.968;5.684;2023-07-31T00:44:55;19.3;74.0
78536;SHT31;67829;51.968;5.684;2023-07-31T00:47:23;19.3;74.5
78536;SHT31;67829;51.968;5.684;2023-07-31T00:49:52;19.3;74.9
78536;SHT31;67829;51.968;5.684;2023-07-31T00:52:21;19.3;75.1
78536;SHT31;67829;51.968;5.684;2023-07-31T00:54:50;19.3;75.4
78536;SHT31;67829;51.968;5.684;2023-07-31T00:57:21;19.3;75.6
78536;SHT31;67829;51.968;5.684;2023-07-31T00:59:50;19.3;75.8
78536;SHT31;67829;51.968;5.684;2023-07-31T01:02:19;19.3;75.9
78536;SHT31;67829;51.968;5.684;2023-07-31T01:04:47;19.3;75.9
78536;SHT31;67829;51.968;5.684;2023-07-31T01:07:22;19.3;75.6
78536;SHT31;67829;51.968;5.684;2023-07-31T01:10:02;19.3;75.7
78536;SHT31;67829;51.968;5.684;2023-07-31T01:12:34;19.3;75.8
78536;SHT31;67829;51.968;5.684;2023-07-31T01:15:05;19.3;75.8
78536;SHT31;67829;51.968;5.684;2023-07-31T01:17:37;19.4;75.9
78536;SHT31;67829;51.968;5.684;2023-07-31T01:20:11;19.4;75.6
78536;SHT31;67829;51.968;5.684;2023-07-31T01:23:49;19.4;75.6
78536;SHT31;67829;51.968;5.684;2023-07-31T01:26:23;19.4;75.4
78536;SHT31;67829;51.968;5.684;2023-07-31T01:28:56;19.4;75.5
78536;SHT31;67829;51.968;5.684;2023-07-31T01:31:30;19.4;75.4
78536;SHT31;67829;51.968;5.684;2023-07-31T01:34:01;19.4;75.5
78536;SHT31;67829;51.968;5.684;2023-07-31T01:36:30;19.4;75.2
78536;SHT31;67829;51.968;5.684;2023-07-31T01:39:00;19.4;75.3
78536;SHT31;67829;51.968;5.684;2023-07-31T01:41:30;19.4;75.0
78536;SHT31;67829;51.968;5.684;2023-07-31T01:43:59;19.4;74.8
78536;SHT31;67829;51.968;5.684;2023-07-31T01:46:27;19.4;75.0
78536;SHT31;67829;51.968;5.684;2023-07-31T01:48:56;19.4;74.8
78536;SHT31;67829;51.968;5.684;2023-07-31T01:51:24;19.4;74.8
78536;SHT31;67829;51.968;5.684;2023-07-31T01:53:53;19.4;74.6
78536;SHT31;67829;51.968;5.684;2023-07-31T01:56:21;19.4;74.7
78536;SHT31;67829;51.968;5.684;2023-07-31T01:58:50;19.4;74.9
78536;SHT31;67829;51.968;5.684;2023-07-31T02:01:19;19.4;74.6
78536;SHT31;67829;51.968;5.684;2023-07-31T02:03:47;19.4;74.9
78536;SHT31;67829;51.968;5.684;2023-07-31T02:06:16;19.4;74.9
78536;SHT31;67829;51.968;5.684;2023-07-31T02:08:45;19.4;74.9
78536;SHT31;67829;51.968;5.684;2023-07-31T02:11:13;19.4;75.1
78536;SHT31;67829;51.968;5.684;2023-07-31T02:13:42;19.4;75.1
78536;SHT31;67829;51.968;5.684;2023-07-31T02:16:11;19.3;75.2
78536;SHT31;67829;51.968;5.684;2023-07-31T02:18:39;19.3;75.2
78536;SHT31;67829;51.968;5.684;2023-07-31T02:21:10;19.3;75.2
78536;SHT31;67829;51.968;5.684;2023-07-31T02:23:38;19.3;75.3
78536;SHT31;67829;51.968;5.684;2023-07-31T02:26:07;19.3;75.3
78536;SHT31;67829;51.968;5.684;2023-07-31T02:28:37;19.3;75.3
78536;SHT31;67829;51.968;5.684;2023-07-31T02:31:09;19.3;75.2
78536;SHT31;67829;51.968;5.684;2023-07-31T02:33:37;19.3;75.4
78536;SHT31;67829;51.968;5.684;2023-07-31T02:36:08;19.3;75.4
78536;SHT31;67829;51.968;5.684;2023-07-31T02:38:36;19.3;75.1
78536;SHT31;67829;51.968;5.684;2023-07-31T02:41:05;19.3;75.1
78536;SHT31;67829;51.968;5.684;2023-07-31T02:43:34;19.3;75.2
78536;SHT31;67829;51.968;5.684;2023-07-31T02:46:04;19.3;75.3
78536;SHT31;67829;51.968;5.684;2023-07-31T02:48:33;19.3;75.1
78536;SHT31;67829;51.968;5.684;2023-07-31T02:51:04;19.3;74.9
78536;SHT31;67829;51.968;5.684;2023-07-31T02:53:32;19.3;74.7
78536;SHT31;67829;51.968;5.684;2023-07-31T02:56:01;19.3;74.9
78536;SHT31;67829;51.968;5.684;2023-07-31T02:58:29;19.3;74.7
78536;SHT31;67829;51.968;5.684;2023-07-31T03:00:59;19.3;74.7
78536;SHT31;67829;51.968;5.684;2023-07-31T03:03:28;19.3;74.5
78536;SHT31;67829;51.968;5.684;2023-07-31T03:05:57;19.3;74.2
78536;SHT31;67829;51.968;5.684;2023-07-31T03:08:25;19.2;74.6
78536;SHT31;67829;51.968;5.684;2023-07-31T03:10:54;19.2;74.5
78536;SHT31;67829;51.968;5.684;2023-07-31T03:13:23;19.2;74.0
78536;SHT31;67829;51.968;5.684;2023-07-31T03:15:52;19.2;74.1
78536;SHT31;67829;51.968;5.684;2023-07-31T03:18:20;19.2;74.1
78536;SHT31;67829;51.968;5.684;2023-07-31T03:20:49;19.2;73.9
78536;SHT31;67829;51.968;5.684;2023-07-31T03:23:17;19.2;74.1
78536;SHT31;67829;51.968;5.684;2023-07-31T03:25:57;19.2;74.2
78536;SHT31;67829;51.968;5.684;2023-07-31T03:28:26;19.2;73.9
78536;SHT31;67829;51.968;5.684;2023-07-31T03:30:55;19.2;74.0
78536;SHT31;67829;51.968;5.684;2023-07-31T03:33:24;19.1;73.6
78536;SHT31;67829;51.968;5.684;2023-07-31T03:35:53;19.1;73.4
78536;SHT31;67829;51.968;5.684;2023-07-31T03:38:22;19.1;73.5
78536;SHT31;67829;51.968;5.684;2023-07-31T03:40:50;19.1;73.7
78536;SHT31;67829;51.968;5.684;2023-07-31T03:43:19;19.1;73.6
78536;SHT31;67829;51.968;5.684;2023-07-31T03:45:47;19.1;73.4
78536;SHT31;67829;51.968;5.684;2023-07-31T03:48:16;19.1;73.5
78536;SHT31;67829;51.968;5.684;2023-07-31T03:50:45;19.1;73.1
78536;SHT31;67829;51.968;5.684;2023-07-31T03:53:13;19.1;72.7
78536;SHT31;67829;51.968;5.684;2023-07-31T03:55:42;19.1;73.2
78536;SHT31;67829;51.968;5.684;2023-07-31T03:58:10;19.1;73.1
78536;SHT31;67829;51.968;5.684;2023-07-31T04:00:40;19.1;73.1
78536;SHT31;67829;51.968;5.684;2023-07-31T04:03:08;19.1;72.8
78536;SHT31;67829;51.968;5.684;2023-07-31T04:05:38;19.1;73.1
78536;SHT31;67829;51.968;5.684;2023-07-31T04:08:08;19.1;72.7
78536;SHT31;67829;51.968;5.684;2023-07-31T04:10:36;19.1;72.4
78536;SHT31;67829;51.968;5.684;2023-07-31T04:13:05;19.1;72.4
78536;SHT31;67829;51.968;5.684;2023-07-31T04:15:33;19.0;72.4
78536;SHT31;67829;51.968;5.684;2023-07-31T04:18:02;19.0;72.4
78536;SHT31;67829;51.968;5.684;2023-07-31T04:20:30;19.0;71.7
78536;SHT31;67829;51.968;5.684;2023-07-31T04:22:59;19.0;72.5
78536;SHT31;67829;51.968;5.684;2023-07-31T04:25:28;19.0;72.8
78536;SHT31;67829;51.968;5.684;2023-07-31T04:27:56;19.0;72.2
78536;SHT31;67829;51.968;5.684;2023-07-31T04:30:26;19.0;72.5
78536;SHT31;67829;51.968;5.684;2023-07-31T04:32:54;19.0;72.0
78536;SHT31;67829;51.968;5.684;2023-07-31T04:35:23;19.0;72.4
78536;SHT31;67829;51.968;5.684;2023-07-31T04:37:51;19.0;72.4
78536;SHT31;67829;51.968;5.684;2023-07-31T04:40:20;19.0;72.6
78536;SHT31;67829;51.968;5.684;2023-07-31T04:42:49;19.1;72.4
78536;SHT31;67829;51.968;5.684;2023-07-31T04:45:18;19.1;72.3
78536;SHT31;67829;51.968;5.684;2023-07-31T04:47:46;19.1;72.3
78536;SHT31;67829;51.968;5.684;2023-07-31T04:50:17;19.1;72.1
78536;SHT31;67829;51.968;5.684;2023-07-31T04:52:47;19.1;71.7
78536;SHT31;67829;51.968;5.684;2023-07-31T04:55:16;19.1;72.3
78536;SHT31;67829;51.968;5.684;2023-07-31T04:57:45;19.1;72.1
78536;SHT31;67829;51.968;5.684;2023-07-31T05:00:13;19.1;71.9
78536;SHT31;67829;51.968;5.684;2023-07-31T05:02:42;19.1;72.4
78536;SHT31;67829;51.968;5.684;2023-07-31T05:05:11;19.1;72.4
78536;SHT31;67829;51.968;5.684;2023-07-31T05:07:41;19.1;72.5
78536;SHT31;67829;51.968;5.684;2023-07-31T05:10:12;19.1;72.3
78536;SHT31;67829;51.968;5.684;2023-07-31T05:12:41;19.1;72.8
78536;SHT31;67829;51.968;5.684;2023-07-31T05:15:10;19.1;72.4
78536;SHT31;67829;51.968;5.684;2023-07-31T05:17:38;19.1;71.9
78536;SHT31;67829;51.968;5.684;2023-07-31T05:20:08;19.1;72.5
78536;SHT31;67829;51.968;5.684;2023-07-31T05:22:37;19.1;72.5
78536;SHT31;67829;51.968;5.684;2023-07-31T05:25:06;19.1;72.9
78536;SHT31;67829;51.968;5.684;2023-07-31T05:27:35;19.1;72.9
78536;SHT31;67829;51.968;5.684;2023-07-31T05:30:04;19.1;73.2
78536;SHT31;67829;51.968;5.684;2023-07-31T05:32:33;19.1;73.1
78536;SHT31;67829;51.968;5.684;2023-07-31T05:35:02;19.1;73.1
78536;SHT31;67829;51.968;5.684;2023-07-31T05:37:30;19.1;73.4
78536;SHT31;67829;51.968;5.684;2023-07-31T05:40:01;19.1;73.5
78536;SHT31;67829;51.968;5.684;2023-07-31T05:42:29;19.1;73.7
78536;SHT31;67829;51.968;5.684;2023-07-31T05:44:58;19.1;73.8
78536;SHT31;67829;51.968;5.684;2023-07-31T05:47:27;19.0;73.7
78536;SHT31;67829;51.968;5.684;2023-07-31T05:49:55;19.0;73.9
78536;SHT31;67829;51.968;5.684;2023-07-31T05:52:24;19.0;74.0
78536;SHT31;67829;51.968;5.684;2023-07-31T05:54:52;19.0;74.3
78536;SHT31;67829;51.968;5.684;2023-07-31T05:57:21;19.0;74.5
78536;SHT31;67829;51.968;5.684;2023-07-31T05:59:50;19.0;74.5
78536;SHT31;67829;51.968;5.684;2023-07-31T06:02:19;19.0;74.9
78536;SHT31;67829;51.968;5.684;2023-07-31T06:04:48;18.9;75.0
78536;SHT31;67829;51.968;5.684;2023-07-31T06:07:17;18.9;75.2
78536;SHT31;67829;51.968;5.684;2023-07-31T06:09:45;18.9;75.3
78536;SHT31;67829;51.968;5.684;2023-07-31T06:12:14;18.9;75.7
78536;SHT31;67829;51.968;5.684;2023-07-31T06:14:45;18.9;75.8
78536;SHT31;67829;51.968;5.684;2023-07-31T06:17:13;19.0;75.8
78536;SHT31;67829;51.968;5.684;2023-07-31T06:19:42;19.0;76.1
78536;SHT31;67829;51.968;5.684;2023-07-31T06:22:10;19.0;76.2
78536;SHT31;67829;51.968;5.684;2023-07-31T06:24:39;19.0;76.5
78536;SHT31;67829;51.968;5.684;2023-07-31T06:27:08;19.0;76.6
78536;SHT31;67829;51.968;5.684;2023-07-31T06:29:38;19.0;76.6
78536;SHT31;67829;51.968;5.684;2023-07-31T06:32:08;19.0;76.7
78536;SHT31;67829;51.968;5.684;2023-07-31T06:34:36;19.0;76.7
78536;SHT31;67829;51.968;5.684;2023-07-31T06:37:06;19.1;76.6
78536;SHT31;67829;51.968;5.684;2023-07-31T06:39:34;19.1;76.7
78536;SHT31;67829;51.968;5.684;2023-07-31T06:42:04;19.1;76.7
78536;SHT31;67829;51.968;5.684;2023-07-31T06:44:32;19.1;76.5
78536;SHT31;67829;51.968;5.684;2023-07-31T06:47:03;19.1;76.6
78536;SHT31;67829;51.968;5.684;2023-07-31T06:49:32;19.2;76.5
78536;SHT31;67829;51.968;5.684;2023-07-31T06:52:00;19.2;76.5
78536;SHT31;67829;51.968;5.684;2023-07-31T06:54:29;19.2;76.5
78536;SHT31;67829;51.968;5.684;2023-07-31T06:56:58;19.2;76.6
78536;SHT31;67829;51.968;5.684;2023-07-31T06:59:26;19.2;76.5
78536;SHT31;67829;51.968;5.684;2023-07-31T07:01:55;19.2;76.7
78536;SHT31;67829;51.968;5.684;2023-07-31T07:04:24;19.2;76.6
78536;SHT31;67829;51.968;5.684;2023-07-31T07:06:53;19.2;77.0
78536;SHT31;67829;51.968;5.684;2023-07-31T07:09:21;19.2;77.1
78536;SHT31;67829;51.968;5.684;2023-07-31T07:11:50;19.2;77.3
78536;SHT31;67829;51.968;5.684;2023-07-31T07:14:20;19.3;77.0
78536;SHT31;67829;51.968;5.684;2023-07-31T07:16:52;19.3;77.0
78536;SHT31;67829;51.968;5.684;2023-07-31T07:19:21;19.3;77.3
78536;SHT31;67829;51.968;5.684;2023-07-31T07:21:49;19.3;77.2
78536;SHT31;67829;51.968;5.684;2023-07-31T07:24:18;19.3;77.2
78536;SHT31;67829;51.968;5.684;2023-07-31T07:26:47;19.3;77.2
78536;SHT31;67829;51.968;5.684;2023-07-31T07:29:15;19.4;76.9
78536;SHT31;67829;51.968;5.684;2023-07-31T07:31:44;19.4;77.0
78536;SHT31;67829;51.968;5.684;2023-07-31T07:34:12;19.4;76.8
78536;SHT31;67829;51.968;5.684;2023-07-31T07:36:41;19.4;76.9
78536;SHT31;67829;51.968;5.684;2023-07-31T07:39:11;19.4;76.9
78536;SHT31;67829;51.968;5.684;2023-07-31T07:41:40;19.4;76.6
78536;SHT31;67829;51.968;5.684;2023-07-31T07:44:08;19.4;76.6
78536;SHT31;67829;51.968;5.684;2023-07-31T07:46:37;19.4;76.8
78536;SHT31;67829;51.968;5.684;2023-07-31T07:49:06;19.4;76.9
78536;SHT31;67829;51.968;5.684;2023-07-31T07:51:37;19.4;76.8
78536;SHT31;67829;51.968;5.684;2023-07-31T07:54:06;19.4;77.1
78536;SHT31;67829;51.968;5.684;2023-07-31T07:56:34;19.4;77.1
78536;SHT31;67829;51.968;5.684;2023-07-31T07:59:03;19.4;77.1
78536;SHT31;67829;51.968;5.684;2023-07-31T08:01:31;19.4;77.2
78536;SHT31;67829;51.968;5.684;2023-07-31T08:04:00;19.4;77.5
78536;SHT31;67829;51.968;5.684;2023-07-31T08:06:29;19.4;77.6
78536;SHT31;67829;51.968;5.684;2023-07-31T08:08:58;19.4;77.3
78536;SHT31;67829;51.968;5.684;2023-07-31T08:11:31;19.5;77.2
78536;SHT31;67829;51.968;5.684;2023-07-31T08:14:00;19.5;77.3
78536;SHT31;67829;51.968;5.684;2023-07-31T08:16:29;19.5;77.2
78536;SHT31;67829;51.968;5.684;2023-07-31T08:18:58;19.5;77.4
78536;SHT31;67829;51.968;5.684;2023-07-31T08:21:26;19.5;77.4
78536;SHT31;67829;51.968;5.684;2023-07-31T08:23:55;19.5;77.2
78536;SHT31;67829;51.968;5.684;2023-07-31T08:26:24;19.5;77.5
78536;SHT31;67829;51.968;5.684;2023-07-31T08:28:53;19.6;77.3
78536;SHT31;67829;51.968;5.684;2023-07-31T08:31:23;19.6;77.3
78536;SHT31;67829;51.968;5.684;2023-07-31T08:33:53;19.6;77.6
78536;SHT31;67829;51.968;5.684;2023-07-31T08:36:22;19.6;77.5
78536;SHT31;67829;51.968;5.684;2023-07-31T08:38:50;19.6;78.0
78536;SHT31;67829;51.968;5.684;2023-07-31T08:41:19;19.6;78.0
78536;SHT31;67829;51.968;5.684;2023-07-31T08:43:50;19.7;77.8
78536;SHT31;67829;51.968;5.684;2023-07-31T08:46:20;19.7;77.8
78536;SHT31;67829;51.968;5.684;2023-07-31T08:48:51;19.7;77.5
78536;SHT31;67829;51.968;5.684;2023-07-31T08:51:20;19.7;77.8
78536;SHT31;67829;51.968;5.684;2023-07-31T08:53:51;19.7;77.5
78536;SHT31;67829;51.968;5.684;2023-07-31T08:56:21;19.8;77.4
78536;SHT31;67829;51.968;5.684;2023-07-31T08:58:51;19.8;77.5
78536;SHT31;67829;51.968;5.684;2023-07-31T09:01:21;19.8;77.3
78536;SHT31;67829;51.968;5.684;2023-07-31T09:03:52;19.8;77.2
78536;SHT31;67829;51.968;5.684;2023-07-31T09:06:27;19.8;76.9
78536;SHT31;67829;51.968;5.684;2023-07-31T09:08:57;19.8;77.1
78536;SHT31;67829;51.968;5.684;2023-07-31T09:11:26;19.8;77.2
78536;SHT31;67829;51.968;5.684;2023-07-31T09:13:57;19.9;77.1
78536;SHT31;67829;51.968;5.684;2023-07-31T09:16:29;19.9;77.2
78536;SHT31;67829;51.968;5.684;2023-07-31T09:18:58;19.9;77.2
78536;SHT31;67829;51.968;5.684;2023-07-31T09:21:28;19.9;77.2
78536;SHT31;67829;51.968;5.684;2023-07-31T09:23:57;19.9;77.0
78536;SHT31;67829;51.968;5.684;2023-07-31T09:26:34;19.9;76.9
78536;SHT31;67829;51.968;5.684;2023-07-31T09:29:05;19.9;77.0
78536;SHT31;67829;51.968;5.684;2023-07-31T09:31:39;19.9;76.9
78536;SHT31;67829;51.968;5.684;2023-07-31T09:34:09;19.9;76.8
78536;SHT31;67829;51.968;5.684;2023-07-31T09:36:44;19.9;76.9
78536;SHT31;67829;51.968;5.684;2023-07-31T09:39:15;19.9;77.0
78536;SHT31;67829;51.968;5.684;2023-07-31T09:41:46;19.9;77.0
78536;SHT31;67829;51.968;5.684;2023-07-31T09:44:15;19.9;77.3
78536;SHT31;67829;51.968;5.684;2023-07-31T09:46:46;20.0;77.6
78536;SHT31;67829;51.968;5.684;2023-07-31T09:49:16;20.0;77.6
78536;SHT31;67829;51.968;5.684;2023-07-31T09:51:44;20.0;77.5
78536;SHT31;67829;51.968;5.684;2023-07-31T09:54:15;20.1;77.9
78536;SHT31;67829;51.968;5.684;2023-07-31T09:56:45;20.1;77.7
78536;SHT31;67829;51.968;5.684;2023-07-31T09:59:16;20.1;76.8
78536;SHT31;67829;51.968;5.684;2023-07-31T10:01:46;20.2;76.3
78536;SHT31;67829;51.968;5.684;2023-07-31T10:04:19;20.2;76.2
78536;SHT31;67829;51.968;5.684;2023-07-31T10:06:53;20.2;76.0
78536;SHT31;67829;51.968;5.684;2023-07-31T10:09:25;20.2;75.7
78536;SHT31;67829;51.968;5.684;2023-07-31T10:12:03;20.2;76.0
78536;SHT31;67829;51.968;5.684;2023-07-31T10:14:35;20.2;76.0
78536;SHT31;67829;51.968;5.684;2023-07-31T10:17:05;20.2;76.4
78536;SHT31;67829;51.968;5.684;2023-07-31T10:19:36;20.2;76.2
78536;SHT31;67829;51.968;5.684;2023-07-31T10:22:05;20.3;76.4
78536;SHT31;67829;51.968;5.684;2023-07-31T10:24:35;20.3;76.2
78536;SHT31;67829;51.968;5.684;2023-07-31T10:27:07;20.3;76.0
78536;SHT31;67829;51.968;5.684;2023-07-31T10:29:37;20.3;76.3
78536;SHT31;67829;51.968;5.684;2023-07-31T10:32:08;20.3;75.8
78536;SHT31;67829;51.968;5.684;2023-07-31T10:34:39;20.3;76.0
78536;SHT31;67829;51.968;5.684;2023-07-31T10:37:21;20.4;76.1
78536;SHT31;67829;51.968;5.684;2023-07-31T10:40:02;20.4;76.2
78536;SHT31;67829;51.968;5.684;2023-07-31T10:42:33;20.4;76.3
78536;SHT31;67829;51.968;5.684;2023-07-31T10:45:05;20.4;75.9
78536;SHT31;67829;51.968;5.684;2023-07-31T10:47:38;20.4;75.9
78536;SHT31;67829;51.968;5.684;2023-07-31T10:50:21;20.5;75.8
78536;SHT31;67829;51.968;5.684;2023-07-31T10:52:52;20.5;76.1
78536;SHT31;67829;51.968;5.684;2023-07-31T10:55:29;20.5;76.2
78536;SHT31;67829;51.968;5.684;2023-07-31T10:58:07;20.5;76.0
78536;SHT31;67829;51.968;5.684;2023-07-31T11:00:39;20.5;75.6
78536;SHT31;67829;51.968;5.684;2023-07-31T11:03:10;20.6;75.7
78536;SHT31;67829;51.968;5.684;2023-07-31T11:05:47;20.6;75.5
78536;SHT31;67829;51.968;5.684;2023-07-31T11:08:18;20.6;76.0
78536;SHT31;67829;51.968;5.684;2023-07-31T11:10:49;20.6;76.5
78536;SHT31;67829;51.968;5.684;2023-07-31T11:13:21;20.6;76.4
78536;SHT31;67829;51.968;5.684;2023-07-31T11:15:49;20.7;76.3
78536;SHT31;67829;51.968;5.684;2023-07-31T11:18:18;20.7;76.1
78536;SHT31;67829;51.968;5.684;2023-07-31T11:20:47;20.7;76.1
78536;SHT31;67829;51.968;5.684;2023-07-31T11:23:17;20.7;75.8
78536;SHT31;67829;51.968;5.684;2023-07-31T11:25:46;20.7;76.3
78536;SHT31;67829;51.968;5.684;2023-07-31T11:28:16;20.7;76.1
78536;SHT31;67829;51.968;5.684;2023-07-31T11:30:46;20.7;76.0
78536;SHT31;67829;51.968;5.684;2023-07-31T11:33:14;20.7;76.4
78536;SHT31;67829;51.968;5.684;2023-07-31T11:35:44;20.7;76.3
78536;SHT31;67829;51.968;5.684;2023-07-31T11:38:24;20.8;75.8
78536;SHT31;67829;51.968;5.684;2023-07-31T11:40:54;20.8;76.2
78536;SHT31;67829;51.968;5.684;2023-07-31T11:43:23;20.8;76.1
78536;SHT31;67829;51.968;5.684;2023-07-31T11:45:55;20.8;76.2
78536;SHT31;67829;51.968;5.684;2023-07-31T11:48:26;20.9;76.4
78536;SHT31;67829;51.968;5.684;2023-07-31T11:50:58;20.9;76.2
78536;SHT31;67829;51.968;5.684;2023-07-31T11:53:31;20.9;76.3
78536;SHT31;67829;51.968;5.684;2023-07-31T11:56:01;21.0;76.2
78536;SHT31;67829;51.968;5.684;2023-07-31T11:58:31;21.0;75.3
78536;SHT31;67829;51.968;5.684;2023-07-31T12:01:03;21.0;75.1
78536;SHT31;67829;51.968;5.684;2023-07-31T12:03:32;21.0;75.2
78536;SHT31;67829;51.968;5.684;2023-07-31T12:06:02;21.0;75.4
78536;SHT31;67829;51.968;5.684;2023-07-31T12:08:31;21.1;75.1
78536;SHT31;67829;51.968;5.684;2023-07-31T12:11:05;21.1;75.4
78536;SHT31;67829;51.968;5.684;2023-07-31T12:13:36;21.1;75.3
78536;SHT31;67829;51.968;5.684;2023-07-31T12:16:05;21.1;75.0
78536;SHT31;67829;51.968;5.684;2023-07-31T12:18:36;21.2;74.4
78536;SHT31;67829;51.968;5.684;2023-07-31T12:21:07;21.2;74.7
78536;SHT31;67829;51.968;5.684;2023-07-31T12:23:38;21.2;74.1
78536;SHT31;67829;51.968;5.684;2023-07-31T12:26:10;21.2;74.0
78536;SHT31;67829;51.968;5.684;2023-07-31T12:28:41;21.2;74.4
78536;SHT31;67829;51.968;5.684;2023-07-31T12:31:11;21.2;74.1
78536;SHT31;67829;51.968;5.684;2023-07-31T12:33:41;21.2;74.3
78536;SHT31;67829;51.968;5.684;2023-07-31T12:36:12;21.2;74.3
78536;SHT31;67829;51.968;5.684;2023-07-31T12:38:42;21.2;74.7
78536;SHT31;67829;51.968;5.684;2023-07-31T12:41:11;21.2;74.7
78536;SHT31;67829;51.968;5.684;2023-07-31T12:43:42;21.2;74.5
78536;SHT31;67829;51.968;5.684;2023-07-31T12:46:11;21.2;75.3
78536;SHT31;67829;51.968;5.684;2023-07-31T12:48:41;21.2;75.4
78536;SHT31;67829;51.968;5.684;2023-07-31T12:51:09;21.2;75.9
78536;SHT31;67829;51.968;5.684;2023-07-31T12:53:38;21.2;76.1
78536;SHT31;67829;51.968;5.684;2023-07-31T12:56:07;21.2;76.2
78536;SHT31;67829;51.968;5.684;2023-07-31T12:58:36;21.3;76.5
78536;SHT31;67829;51.968;5.684;2023-07-31T13:01:04;21.3;75.1
78536;SHT31;67829;51.968;5.684;2023-07-31T13:03:33;21.3;75.3
78536;SHT31;67829;51.968;5.684;2023-07-31T13:06:03;21.4;74.8
78536;SHT31;67829;51.968;5.684;2023-07-31T13:08:32;21.4;74.7
78536;SHT31;67829;51.968;5.684;2023-07-31T13:11:00;21.4;74.5
78536;SHT31;67829;51.968;5.684;2023-07-31T13:13:29;21.4;73.9
78536;SHT31;67829;51.968;5.684;2023-07-31T13:15:58;21.4;74.3
78536;SHT31;67829;51.968;5.684;2023-07-31T13:18:28;21.4;74.0
78536;SHT31;67829;51.968;5.684;2023-07-31T13:20:57;21.4;74.2
78536;SHT31;67829;51.968;5.684;2023-07-31T13:23:27;21.5;74.5
78536;SHT31;67829;51.968;5.684;2023-07-31T13:25:56;21.5;74.7
78536;SHT31;67829;51.968;5.684;2023-07-31T13:28:25;21.5;74.4
78536;SHT31;67829;51.968;5.684;2023-07-31T13:30:53;21.5;74.2
78536;SHT31;67829;51.968;5.684;2023-07-31T13:33:22;21.5;73.6
78536;SHT31;67829;51.968;5.684;2023-07-31T13:35:51;21.5;73.7
78536;SHT31;67829;51.968;5.684;2023-07-31T13:38:19;21.5;73.4
78536;SHT31;67829;51.968;5.684;2023-07-31T13:40:48;21.5;73.4
78536;SHT31;67829;51.968;5.684;2023-07-31T13:43:16;21.5;73.6
78536;SHT31;67829;51.968;5.684;2023-07-31T13:45:45;21.5;73.5
78536;SHT31;67829;51.968;5.684;2023-07-31T13:48:13;21.5;73.7
78536;SHT31;67829;51.968;5.684;2023-07-31T13:50:42;21.5;74.1
78536;SHT31;67829;51.968;5.684;2023-07-31T13:53:11;21.4;74.1
78536;SHT31;67829;51.968;5.684;2023-07-31T13:55:39;21.4;74.4
78536;SHT31;67829;51.968;5.684;2023-07-31T13:58:11;21.4;74.7
78536;SHT31;67829;51.968;5.684;2023-07-31T14:00:40;21.4;74.2
78536;SHT31;67829;51.968;5.684;2023-07-31T14:03:08;21.4;74.7
78536;SHT31;67829;51.968;5.684;2023-07-31T14:05:38;21.4;74.5
78536;SHT31;67829;51.968;5.684;2023-07-31T14:08:06;21.4;74.5
78536;SHT31;67829;51.968;5.684;2023-07-31T14:10:35;21.4;75.0
78536;SHT31;67829;51.968;5.684;2023-07-31T14:13:04;21.4;74.9
78536;SHT31;67829;51.968;5.684;2023-07-31T14:15:32;21.4;74.6
78536;SHT31;67829;51.968;5.684;2023-07-31T14:18:02;21.4;75.1
78536;SHT31;67829;51.968;5.684;2023-07-31T14:20:30;21.4;74.9
78536;SHT31;67829;51.968;5.684;2023-07-31T14:22:59;21.4;75.2
78536;SHT31;67829;51.968;5.684;2023-07-31T14:25:28;21.4;74.9
78536;SHT31;67829;51.968;5.684;2023-07-31T14:27:57;21.4;75.0
78536;SHT31;67829;51.968;5.684;2023-07-31T14:30:25;21.4;74.9
78536;SHT31;67829;51.968;5.684;2023-07-31T14:32:54;21.4;74.9
78536;SHT31;67829;51.968;5.684;2023-07-31T14:35:23;21.4;75.0
78536;SHT31;67829;51.968;5.684;2023-07-31T14:37:51;21.4;75.0
78536;SHT31;67829;51.968;5.684;2023-07-31T14:40:20;21.4;74.9
78536;SHT31;67829;51.968;5.684;2023-07-31T14:42:49;21.4;74.9
78536;SHT31;67829;51.968;5.684;2023-07-31T14:45:18;21.4;75.1
78536;SHT31;67829;51.968;5.684;2023-07-31T14:47:46;21.4;75.4
78536;SHT31;67829;51.968;5.684;2023-07-31T14:50:15;21.4;75.1
78536;SHT31;67829;51.968;5.684;2023-07-31T14:52:45;21.4;74.9
78536;SHT31;67829;51.968;5.684;2023-07-31T14:55:14;21.4;74.9
78536;SHT31;67829;51.968;5.684;2023-07-31T14:57:43;21.4;74.7
78536;SHT31;67829;51.968;5.684;2023-07-31T15:00:12;21.4;74.6
78536;SHT31;67829;51.968;5.684;2023-07-31T15:02:41;21.4;74.5
78536;SHT31;67829;51.968;5.684;2023-07-31T15:05:10;21.4;74.7
78536;SHT31;67829;51.968;5.684;2023-07-31T15:07:38;21.3;74.9
78536;SHT31;67829;51.968;5.684;2023-07-31T15:10:08;21.3;74.8
78536;SHT31;67829;51.968;5.684;2023-07-31T15:12:39;21.3;74.9
78536;SHT31;67829;51.968;5.684;2023-07-31T15:15:12;21.3;74.9
78536;SHT31;67829;51.968;5.684;2023-07-31T15:17:40;21.3;74.7
78536;SHT31;67829;51.968;5.684;2023-07-31T15:20:10;21.3;74.9
78536;SHT31;67829;51.968;5.684;2023-07-31T15:22:38;21.3;74.7
78536;SHT31;67829;51.968;5.684;2023-07-31T15:25:08;21.3;74.6
78536;SHT31;67829;51.968;5.684;2023-07-31T15:27:37;21.3;74.9
78536;SHT31;67829;51.968;5.684;2023-07-31T15:30:06;21.3;75.0
78536;SHT31;67829;51.968;5.684;2023-07-31T15:32:37;21.3;74.9
78536;SHT31;67829;51.968;5.684;2023-07-31T15:35:06;21.3;75.1
78536;SHT31;67829;51.968;5.684;2023-07-31T15:37:35;21.3;75.1
78536;SHT31;67829;51.968;5.684;2023-07-31T15:40:04;21.3;74.9
78536;SHT31;67829;51.968;5.684;2023-07-31T15:42:33;21.3;74.9
78536;SHT31;67829;51.968;5.684;2023-07-31T15:45:06;21.3;74.9
78536;SHT31;67829;51.968;5.684;2023-07-31T15:47:36;21.3;74.9
78536;SHT31;67829;51.968;5.684;2023-07-31T15:50:06;21.3;75.1
78536;SHT31;67829;51.968;5.684;2023-07-31T15:52:34;21.3;75.1
78536;SHT31;67829;51.968;5.684;2023-07-31T15:55:04;21.3;75.1
78536;SHT31;67829;51.968;5.684;2023-07-31T15:57:33;21.3;75.1
78536;SHT31;67829;51.968;5.684;2023-07-31T16:00:02;21.2;74.9
78536;SHT31;67829;51.968;5.684;2023-07-31T16:02:32;21.2;74.9
78536;SHT31;67829;51.968;5.684;2023-07-31T16:05:00;21.2;74.8
78536;SHT31;67829;51.968;5.684;2023-07-31T16:07:29;21.2;74.7
78536;SHT31;67829;51.968;5.684;2023-07-31T16:09:58;21.2;75.2
78536;SHT31;67829;51.968;5.684;2023-07-31T16:12:26;21.2;75.1
78536;SHT31;67829;51.968;5.684;2023-07-31T16:14:57;21.2;75.2
78536;SHT31;67829;51.968;5.684;2023-07-31T16:17:25;21.2;75.2